createdAt,value
2022-10-08T00:00:05.238Z,5.43
2022-10-08T00:03:06.481Z,5.50
2022-10-08T00:06:12.226Z,5.07
2022-10-08T00:09:13.506Z,4.47
2022-10-08T00:12:14.874Z,5.10
2022-10-08T00:15:16.130Z,6.72
2022-10-08T00:18:17.626Z,5.85
2022-10-08T00:21:20.640Z,5.00
2022-10-08T00:24:21.911Z,5.15
2022-10-08T00:27:26.352Z,5.57
2022-10-08T00:30:27.617Z,5.43
2022-10-08T00:33:28.840Z,5.60
2022-10-08T00:36:34.395Z,5.13
2022-10-08T00:39:35.753Z,5.85
2022-10-08T00:42:38.309Z,5.35
2022-10-08T00:45:39.675Z,5.40
2022-10-08T00:48:40.963Z,5.30
2022-10-08T00:51:46.213Z,4.72
2022-10-08T00:54:50.147Z,4.93
2022-10-08T00:57:52.303Z,6.10
2022-10-08T01:00:53.837Z,4.20
2022-10-08T01:03:55.948Z,4.22
2022-10-08T01:07:05.412Z,4.65
2022-10-08T01:10:12.879Z,4.20
2022-10-08T01:13:34.975Z,4.80
2022-10-08T01:16:42.665Z,4.22
2022-10-08T01:20:04.747Z,4.82
2022-10-08T01:23:24.830Z,4.97
2022-10-08T01:26:36.265Z,4.75
2022-10-08T01:29:41.880Z,4.28
2022-10-08T01:32:51.175Z,4.55
2022-10-08T01:35:56.202Z,4.13
2022-10-08T01:39:01.736Z,4.90
2022-10-08T01:42:04.189Z,4.55
2022-10-08T01:45:09.381Z,5.68
2022-10-08T01:48:16.312Z,5.05
2022-10-08T01:51:20.415Z,4.70
2022-10-08T01:54:22.418Z,4.57
2022-10-08T01:57:23.991Z,4.30
2022-10-08T02:00:25.274Z,3.80
2022-10-08T02:03:26.529Z,3.95
2022-10-08T02:06:28.587Z,4.30
2022-10-08T02:09:31.219Z,4.18
2022-10-08T02:12:32.473Z,4.38
2022-10-08T02:15:54.788Z,4.18
2022-10-08T02:19:04.663Z,4.53
2022-10-08T02:22:07.135Z,3.80
2022-10-08T02:25:21.590Z,5.00
2022-10-08T02:28:38.852Z,4.32
2022-10-08T02:31:54.702Z,4.15
2022-10-08T02:34:58.059Z,5.05
2022-10-08T02:38:01.188Z,4.30
2022-10-08T02:41:03.882Z,4.10
2022-10-08T02:44:07.064Z,4.60
2022-10-08T02:47:10.617Z,4.22
2022-10-08T02:50:12.915Z,4.18
2022-10-08T02:53:15.955Z,4.47
2022-10-08T02:56:27.514Z,4.18
2022-10-08T02:59:28.777Z,3.92
2022-10-08T03:02:35.698Z,4.35
2022-10-08T03:05:38.173Z,4.00
2022-10-08T03:08:41.270Z,3.78
2022-10-08T03:11:42.791Z,4.53
2022-10-08T03:14:48.191Z,4.20
2022-10-08T03:17:49.435Z,4.07
2022-10-08T03:20:51.822Z,4.55
2022-10-08T03:23:53.069Z,4.20
2022-10-08T03:26:54.618Z,4.07
2022-10-08T03:29:58.807Z,3.75
2022-10-08T03:33:00.037Z,3.45
2022-10-08T03:36:01.436Z,3.70
2022-10-08T03:39:02.789Z,3.97
2022-10-08T03:42:04.480Z,3.60
2022-10-08T03:45:05.988Z,3.88
2022-10-08T03:48:07.204Z,4.13
2022-10-08T03:51:10.799Z,3.47
2022-10-08T03:54:12.048Z,4.40
2022-10-08T03:57:13.298Z,3.85
2022-10-08T04:00:14.619Z,3.78
2022-10-08T04:03:15.867Z,3.35
2022-10-08T04:06:17.576Z,3.13
2022-10-08T04:09:18.801Z,3.05
2022-10-08T04:12:20.049Z,3.10
2022-10-08T04:15:21.297Z,3.58
2022-10-08T04:18:22.718Z,3.10
2022-10-08T04:21:24.002Z,3.10
2022-10-08T04:24:25.256Z,3.63
2022-10-08T04:27:26.520Z,3.90
2022-10-08T04:30:27.824Z,3.25
2022-10-08T04:33:29.814Z,3.78
2022-10-08T04:36:31.050Z,3.88
2022-10-08T04:39:32.322Z,4.32
2022-10-08T04:42:33.617Z,4.18
2022-10-08T04:45:34.885Z,4.57
2022-10-08T04:48:36.533Z,4.03
2022-10-08T04:51:37.757Z,4.28
2022-10-08T04:54:39.189Z,3.70
2022-10-08T04:57:40.505Z,4.00
2022-10-08T05:00:41.745Z,3.10
2022-10-08T05:03:44.394Z,3.35
2022-10-08T05:06:45.628Z,3.42
2022-10-08T05:09:46.886Z,3.40
2022-10-08T05:12:48.672Z,3.28
2022-10-08T05:15:50.339Z,2.67
2022-10-08T05:18:52.165Z,3.10
2022-10-08T05:21:53.435Z,2.90
2022-10-08T05:24:54.731Z,3.17
2022-10-08T05:27:56.199Z,3.33
2022-10-08T05:31:00.926Z,3.33
2022-10-08T05:34:02.235Z,3.42
2022-10-08T05:37:03.783Z,3.25
2022-10-08T05:40:05.188Z,2.97
2022-10-08T05:43:06.454Z,3.22
2022-10-08T05:46:07.809Z,3.42
2022-10-08T05:49:12.973Z,3.40
2022-10-08T05:52:14.272Z,3.33
2022-10-08T05:55:15.651Z,3.22
2022-10-08T05:58:16.880Z,5.22
2022-10-08T06:01:22.278Z,3.65
2022-10-08T06:04:23.648Z,4.63
2022-10-08T06:07:24.928Z,4.53
2022-10-08T06:10:26.241Z,4.45
2022-10-08T06:13:27.603Z,4.97
2022-10-08T06:16:29.355Z,3.95
2022-10-08T06:19:31.002Z,4.72
2022-10-08T06:22:32.220Z,4.82
2022-10-08T06:25:35.870Z,4.30
2022-10-08T06:28:38.029Z,4.60
2022-10-08T06:31:39.363Z,4.57
2022-10-08T06:34:41.974Z,3.65
2022-10-08T06:37:43.216Z,4.80
2022-10-08T06:40:44.842Z,5.10
2022-10-08T06:43:46.256Z,4.60
2022-10-08T06:46:47.584Z,4.95
2022-10-08T06:49:48.894Z,6.10
2022-10-08T06:52:50.364Z,5.25
2022-10-08T06:55:55.746Z,5.03
2022-10-08T06:58:56.982Z,4.85
2022-10-08T07:01:58.269Z,4.82
2022-10-08T07:04:59.574Z,6.55
2022-10-08T07:08:01.033Z,6.85
2022-10-08T07:11:05.163Z,6.10
2022-10-08T07:14:06.395Z,6.43
2022-10-08T07:17:07.646Z,6.03
2022-10-08T07:20:09.152Z,4.35
2022-10-08T07:23:10.451Z,4.07
2022-10-08T07:26:11.648Z,4.28
2022-10-08T07:29:13.794Z,4.45
2022-10-08T07:32:15.065Z,3.72
2022-10-08T07:35:16.420Z,4.45
2022-10-08T07:38:18.542Z,4.03
2022-10-08T07:41:19.862Z,3.65
2022-10-08T07:44:21.167Z,4.00
2022-10-08T07:47:22.482Z,3.80
2022-10-08T07:50:23.956Z,3.88
2022-10-08T07:53:25.239Z,3.13
2022-10-08T07:56:26.640Z,3.20
2022-10-08T07:59:28.281Z,2.20
2022-10-08T08:02:29.551Z,1.80
2022-10-08T08:05:33.333Z,2.97
2022-10-08T08:08:35.295Z,2.15
2022-10-08T08:11:36.570Z,1.52
2022-10-08T08:14:37.793Z,1.83
2022-10-08T08:17:39.163Z,1.63
2022-10-08T08:20:41.152Z,1.63
2022-10-08T08:23:44.077Z,2.15
2022-10-08T08:26:45.374Z,1.77
2022-10-08T08:29:46.640Z,1.95
2022-10-08T08:32:48.165Z,1.40
2022-10-08T08:35:52.931Z,1.77
2022-10-08T08:38:54.387Z,1.58
2022-10-08T08:42:07.812Z,1.48
2022-10-08T08:45:28.360Z,1.52
2022-10-08T08:48:37.682Z,1.90
2022-10-08T08:51:38.966Z,1.42
2022-10-08T08:54:40.299Z,1.30
2022-10-08T08:57:45.658Z,2.00
2022-10-08T09:00:51.796Z,1.40
2022-10-08T09:03:54.771Z,1.38
2022-10-08T09:06:58.221Z,1.50
2022-10-08T09:10:01.607Z,1.33
2022-10-08T09:13:03.029Z,1.42
2022-10-08T09:16:04.393Z,1.15
2022-10-08T09:19:05.665Z,1.30
2022-10-08T09:22:23.922Z,1.33
2022-10-08T09:25:26.318Z,1.40
2022-10-08T09:28:57.131Z,1.10
2022-10-08T09:31:58.412Z,1.77
2022-10-08T09:35:06.519Z,1.90
2022-10-08T09:38:15.411Z,1.50
2022-10-08T09:41:16.630Z,1.17
2022-10-08T09:44:19.782Z,1.48
2022-10-08T09:47:22.499Z,0.90
2022-10-08T09:50:23.776Z,1.58
2022-10-08T09:53:27.041Z,1.10
2022-10-08T09:56:29.342Z,1.08
2022-10-08T09:59:33.146Z,1.42
2022-10-08T10:02:38.136Z,1.10
2022-10-08T10:05:39.743Z,1.80
2022-10-08T10:08:48.393Z,1.08
2022-10-08T10:11:55.202Z,1.08
2022-10-08T10:14:59.370Z,0.93
2022-10-08T10:18:20.969Z,1.50
2022-10-08T10:21:40.722Z,1.25
2022-10-08T10:25:05.024Z,1.80
2022-10-08T10:28:08.889Z,1.83
2022-10-08T10:31:13.021Z,1.10
2022-10-08T10:34:14.298Z,0.90
2022-10-08T10:37:18.879Z,1.60
2022-10-08T10:40:36.900Z,0.95
2022-10-08T10:43:48.123Z,1.10
2022-10-08T10:46:51.654Z,1.60
2022-10-08T10:49:52.951Z,0.80
2022-10-08T10:53:13.024Z,1.35
2022-10-08T10:56:15.949Z,1.30
2022-10-08T10:59:37.472Z,0.73
2022-10-08T11:02:57.287Z,0.90
2022-10-08T11:06:05.928Z,0.95
2022-10-08T11:09:07.134Z,1.10
2022-10-08T11:12:08.361Z,1.02
2022-10-08T11:15:28.510Z,1.52
2022-10-08T11:18:35.855Z,0.90
2022-10-08T11:21:40.098Z,1.05
2022-10-08T11:24:52.390Z,1.40
2022-10-08T11:27:53.589Z,1.63
2022-10-08T11:30:57.655Z,1.40
2022-10-08T11:33:59.572Z,1.40
2022-10-08T11:37:03.900Z,1.27
2022-10-08T11:40:28.486Z,1.52
2022-10-08T11:43:36.556Z,1.67
2022-10-08T11:46:37.889Z,1.20
2022-10-08T11:49:39.135Z,0.93
2022-10-08T11:52:40.397Z,1.58
2022-10-08T11:55:55.428Z,1.45
2022-10-08T11:58:57.903Z,1.30
2022-10-08T12:02:04.998Z,1.38
2022-10-08T12:05:21.338Z,2.03
2022-10-08T12:08:58.114Z,1.13
2022-10-08T12:15:00.523Z,1.02
2022-10-08T12:18:01.744Z,1.40
2022-10-08T12:21:20.434Z,2.10
2022-10-08T12:24:49.981Z,1.10
2022-10-08T12:30:56.869Z,2.15
2022-10-08T12:34:00.179Z,1.20
2022-10-08T12:37:05.003Z,1.52
2022-10-08T12:40:14.540Z,1.20
2022-10-08T12:43:18.898Z,1.25
2022-10-08T12:46:39.230Z,1.35
2022-10-08T12:49:43.939Z,1.27
2022-10-08T12:52:45.479Z,1.25
2022-10-08T12:55:54.681Z,1.48
2022-10-08T12:58:58.546Z,1.27
2022-10-08T13:01:59.864Z,0.90
2022-10-08T13:05:01.205Z,1.40
2022-10-08T13:08:18.832Z,1.40
2022-10-08T13:11:20.157Z,1.58
2022-10-08T13:14:24.471Z,1.52
2022-10-08T13:17:33.242Z,1.50
2022-10-08T13:20:34.500Z,1.08
2022-10-08T13:23:36.774Z,1.60
2022-10-08T13:26:42.555Z,1.63
2022-10-08T13:29:43.826Z,1.50
2022-10-08T13:32:45.417Z,1.52
2022-10-08T13:35:54.044Z,1.48
2022-10-08T13:38:55.308Z,1.35
2022-10-08T13:42:00.924Z,1.67
2022-10-08T13:45:04.086Z,1.13
2022-10-08T13:48:09.391Z,1.75
2022-10-08T13:51:10.956Z,1.40
2022-10-08T13:54:12.413Z,1.20
2022-10-08T13:57:14.088Z,1.23
2022-10-08T14:00:15.644Z,1.83
2022-10-08T14:03:16.945Z,1.63
2022-10-08T14:06:18.191Z,1.40
2022-10-08T14:09:21.501Z,1.23
2022-10-08T14:12:26.287Z,1.38
2022-10-08T14:15:27.634Z,1.45
2022-10-08T14:18:28.971Z,1.50
2022-10-08T14:21:30.207Z,1.50
2022-10-08T14:24:31.453Z,1.88
2022-10-08T14:27:32.745Z,1.13
2022-10-08T14:30:34.053Z,1.55
2022-10-08T14:33:35.329Z,1.23
2022-10-08T14:36:37.508Z,1.70
2022-10-08T14:39:38.872Z,1.60
2022-10-08T14:42:40.090Z,1.42
2022-10-08T14:45:41.399Z,1.80
2022-10-08T14:48:42.671Z,1.20
2022-10-08T14:51:43.923Z,1.23
2022-10-08T14:54:45.244Z,1.33
2022-10-08T14:57:46.475Z,1.38
2022-10-08T15:00:51.957Z,1.30
2022-10-08T15:03:53.373Z,1.08
2022-10-08T15:06:54.692Z,1.60
2022-10-08T15:09:55.927Z,1.50
2022-10-08T15:12:57.194Z,1.20
2022-10-08T15:15:58.842Z,1.23
2022-10-08T15:19:00.197Z,1.70
2022-10-08T15:22:01.465Z,1.60
2022-10-08T15:25:02.842Z,1.00
2022-10-08T15:28:04.680Z,1.52
2022-10-08T15:31:08.002Z,1.00
2022-10-08T15:34:15.185Z,1.70
2022-10-08T15:37:16.442Z,1.70
2022-10-08T15:40:17.933Z,1.27
2022-10-08T15:43:19.215Z,1.48
2022-10-08T15:46:21.130Z,1.45
2022-10-08T15:49:22.482Z,1.70
2022-10-08T15:52:23.767Z,1.55
2022-10-08T15:55:25.334Z,1.05
2022-10-08T15:58:46.110Z,1.58
2022-10-08T16:01:47.908Z,1.10
2022-10-08T16:04:49.205Z,1.83
2022-10-08T16:07:50.459Z,1.58
2022-10-08T16:10:56.135Z,1.50
2022-10-08T16:14:00.622Z,1.48
2022-10-08T16:17:02.794Z,1.85
2022-10-08T16:20:04.350Z,1.90
2022-10-08T16:23:05.585Z,1.73
2022-10-08T16:26:07.711Z,1.88
2022-10-08T16:29:10.787Z,1.58
2022-10-08T16:32:12.837Z,1.45
2022-10-08T16:35:14.084Z,1.75
2022-10-08T16:38:15.330Z,1.70
2022-10-08T16:41:17.758Z,1.60
2022-10-08T16:44:19.758Z,1.50
2022-10-08T16:47:21.545Z,1.85
2022-10-08T16:50:22.774Z,1.58
2022-10-08T16:53:24.014Z,1.25
2022-10-08T16:56:26.445Z,1.63
2022-10-08T16:59:28.963Z,1.85
2022-10-08T17:02:30.289Z,1.35
2022-10-08T17:05:31.562Z,2.00
2022-10-08T17:08:32.862Z,1.48
2022-10-08T17:11:34.552Z,1.77
2022-10-08T17:14:37.736Z,2.38
2022-10-08T17:17:39.030Z,2.30
2022-10-08T17:20:41.423Z,2.40
2022-10-08T17:23:42.668Z,1.77
2022-10-08T17:26:43.960Z,1.83
2022-10-08T17:29:45.491Z,2.70
2022-10-08T17:32:46.900Z,2.65
2022-10-08T17:35:48.376Z,3.72
2022-10-08T17:38:53.737Z,2.13
2022-10-08T17:41:55.680Z,2.53
2022-10-08T17:44:56.922Z,3.05
2022-10-08T17:47:58.202Z,2.60
2022-10-08T17:51:03.339Z,2.72
2022-10-08T17:54:07.314Z,2.92
2022-10-08T17:57:08.579Z,2.55
2022-10-08T18:00:10.362Z,3.42
2022-10-08T18:03:11.742Z,4.07
2022-10-08T18:06:13.139Z,3.50
2022-10-08T18:09:19.685Z,3.28
2022-10-08T18:12:20.910Z,3.13
2022-10-08T18:15:23.215Z,3.40
2022-10-08T18:18:24.466Z,3.22
2022-10-08T18:21:26.004Z,3.80
2022-10-08T18:24:27.573Z,2.75
2022-10-08T18:27:29.160Z,4.00
2022-10-08T18:30:30.424Z,3.92
2022-10-08T18:33:32.465Z,3.67
2022-10-08T18:36:34.949Z,3.90
2022-10-08T18:39:36.288Z,4.00
2022-10-08T18:42:37.551Z,4.63
2022-10-08T18:45:39.207Z,5.03
2022-10-08T18:48:40.987Z,5.55
2022-10-08T18:51:42.446Z,5.78
2022-10-08T18:54:43.719Z,4.97
2022-10-08T18:57:44.985Z,7.43
2022-10-08T19:00:46.390Z,6.13
2022-10-08T19:03:48.469Z,4.95
2022-10-08T19:06:51.036Z,4.05
2022-10-08T19:09:52.293Z,2.95
2022-10-08T19:12:53.562Z,2.67
2022-10-08T19:15:54.857Z,2.80
2022-10-08T19:19:02.357Z,4.10
2022-10-08T19:22:03.626Z,4.05
2022-10-08T19:25:05.049Z,5.05
2022-10-08T19:28:06.336Z,5.38
2022-10-08T19:31:11.643Z,5.35
2022-10-08T19:34:14.364Z,5.57
2022-10-08T19:37:15.633Z,4.53
2022-10-08T19:40:16.970Z,3.95
2022-10-08T19:43:18.266Z,3.25
2022-10-08T19:46:19.896Z,3.53
2022-10-08T19:49:21.283Z,3.50
2022-10-08T19:52:22.603Z,3.38
2022-10-08T19:55:23.877Z,4.00
2022-10-08T19:58:25.317Z,4.20
2022-10-08T20:01:28.883Z,5.18
2022-10-08T20:04:30.174Z,5.43
2022-10-08T20:07:31.418Z,6.28
2022-10-08T20:10:33.113Z,6.05
2022-10-08T20:13:34.749Z,4.65
2022-10-08T20:16:37.652Z,4.03
2022-10-08T20:19:38.957Z,5.25
2022-10-08T20:22:40.200Z,6.15
2022-10-08T20:25:42.438Z,7.32
2022-10-08T20:28:44.445Z,6.55
2022-10-08T20:31:49.150Z,6.40
2022-10-08T20:37:51.683Z,5.10
2022-10-08T20:40:54.772Z,5.28
2022-10-08T20:44:00.194Z,5.55
2022-10-08T20:47:01.812Z,5.93
2022-10-08T20:50:03.207Z,5.80
2022-10-08T20:53:04.532Z,6.45
2022-10-08T20:56:06.827Z,5.03
2022-10-08T20:59:09.040Z,5.13
2022-10-08T21:02:11.259Z,5.45
2022-10-08T21:05:13.051Z,6.05
2022-10-08T21:08:14.295Z,5.47
2022-10-08T21:11:16.896Z,4.43
2022-10-08T21:14:19.489Z,5.35
2022-10-08T21:17:20.724Z,5.13
2022-10-08T21:20:22.233Z,4.95
2022-10-08T21:23:23.511Z,4.00
2022-10-08T21:26:26.199Z,4.15
2022-10-08T21:29:27.530Z,4.10
2022-10-08T21:32:28.832Z,5.65
2022-10-08T21:35:30.095Z,4.80
2022-10-08T21:38:31.471Z,5.03
2022-10-08T21:41:34.231Z,4.50
2022-10-08T21:44:35.481Z,3.70
2022-10-08T21:47:36.721Z,4.25
2022-10-08T21:50:37.943Z,4.32
2022-10-08T21:53:40.376Z,4.13
2022-10-08T21:56:41.936Z,3.65
2022-10-08T21:59:43.281Z,2.95
2022-10-08T22:02:44.597Z,3.10
2022-10-08T22:06:04.554Z,3.08
2022-10-08T22:09:06.863Z,3.58
2022-10-08T22:12:08.139Z,3.63
2022-10-08T22:15:09.622Z,4.22
2022-10-08T22:18:10.865Z,4.47
2022-10-08T22:21:14.022Z,3.10
2022-10-08T22:24:15.493Z,2.88
2022-10-08T22:27:16.767Z,2.20
2022-10-08T22:30:18.011Z,2.65
2022-10-08T22:33:19.705Z,3.42
2022-10-08T22:36:28.183Z,2.72
2022-10-08T22:39:29.474Z,2.22
2022-10-08T22:42:30.721Z,2.80
2022-10-08T22:45:35.743Z,2.95
2022-10-08T22:48:37.812Z,2.72
2022-10-08T22:51:39.495Z,2.05
2022-10-08T22:54:40.780Z,2.90
2022-10-08T22:57:42.012Z,2.72
2022-10-08T23:00:43.297Z,3.05
2022-10-08T23:03:44.700Z,3.00
2022-10-08T23:06:45.979Z,2.47
2022-10-08T23:09:47.240Z,2.90
2022-10-08T23:12:48.686Z,2.40
2022-10-08T23:15:50.145Z,2.97
2022-10-08T23:18:52.810Z,2.80
2022-10-08T23:21:54.044Z,2.78
2022-10-08T23:24:55.289Z,3.50
2022-10-08T23:27:56.532Z,2.95
2022-10-08T23:31:04.790Z,2.60
2022-10-08T23:34:06.839Z,3.05
2022-10-08T23:37:08.134Z,2.83
2022-10-08T23:40:09.475Z,2.85
2022-10-08T23:43:10.746Z,2.20
2022-10-08T23:46:13.584Z,2.58
2022-10-08T23:49:14.917Z,3.15
2022-10-08T23:52:16.176Z,2.70
2022-10-08T23:55:17.443Z,2.90
2022-10-08T23:58:18.767Z,2.85
